Time;durP1;ratioP1;P1;durP2;ratioP2;P2;SDS_P1;SDS_P2;PMS_P1;PMS_P2;Temp;Humidity;BMP_temperature;BMP_pressure;BME280_temperature;BME280_humidity;BME280_pressure;Samples;Min_cycle;Max_cycle;Signal;HPM_P1;HPM_P2
2021/04/11 00:00:17;;;;;;;0.10;0.10;;;;;;;9.85;58.35;99519.44;5073408;28;20049;-59
2021/04/11 00:02:43;;;;;;;0.10;0.10;;;;;;;9.81;58.43;99524.53;5095362;28;20063;-59
2021/04/11 00:05:10;;;;;;;0.15;0.15;;;;;;;9.77;58.60;99515.88;5095437;28;20051;-58
2021/04/11 00:07:35;;;;;;;0.50;0.50;;;;;;;9.76;58.67;99525.19;5095337;28;20052;-58
2021/04/11 00:10:01;;;;;;;0.20;0.20;;;;;;;9.76;58.45;99527.06;5095400;28;20048;-59
2021/04/11 00:12:27;;;;;;;0.30;0.30;;;;;;;9.76;58.46;99525.19;5095516;28;20094;-59
2021/04/11 00:14:53;;;;;;;0.15;0.15;;;;;;;9.75;58.29;99526.22;5095699;28;20055;-59
2021/04/11 00:17:18;;;;;;;0.47;0.47;;;;;;;9.76;58.27;99525.19;5095540;28;20060;-59
2021/04/11 00:19:44;;;;;;;0.35;0.35;;;;;;;9.76;58.55;99525.19;5095128;28;20094;-59
2021/04/11 00:22:10;;;;;;;0.20;0.20;;;;;;;9.77;58.21;99515.88;5095164;28;20074;-59
2021/04/11 00:24:36;;;;;;;0.15;0.15;;;;;;;9.79;58.20;99519.25;5095378;28;20048;-58
2021/04/11 00:27:02;;;;;;;0.40;0.40;;;;;;;9.82;58.28;99527.06;5076856;28;20044;-58
2021/04/11 00:29:27;;;;;;;0.30;0.30;;;;;;;9.84;58.25;99523.28;5095128;28;20409;-59
2021/04/11 00:31:53;;;;;;;0.10;0.10;;;;;;;9.81;58.15;99519.88;5095036;28;20054;-57
2021/04/11 00:34:19;;;;;;;0.13;0.13;;;;;;;9.82;58.14;99524.31;5095035;28;20044;-58
2021/04/11 00:36:45;;;;;;;0.20;0.20;;;;;;;9.81;58.16;99525.38;5095027;28;20052;-58
2021/04/11 00:39:10;;;;;;;0.15;0.15;;;;;;;9.82;58.22;99521.56;5103109;28;20131;-58
2021/04/11 00:41:44;;;;;;;0.10;0.10;;;;;;;9.82;58.14;99524.31;5096556;28;20047;-58
2021/04/11 00:44:12;;;;;;;0.20;0.20;;;;;;;9.84;58.16;99523.28;5115256;28;20086;-59
2021/04/11 00:46:52;;;;;;;0.40;0.40;;;;;;;9.85;58.08;99525.81;5114853;28;20159;-61
2021/04/11 00:49:34;;;;;;;0.20;0.20;;;;;;;9.86;57.84;99521.16;5115202;28;20142;-58
2021/04/11 00:52:01;;;;;;;0.55;0.32;;;;;;;9.87;58.09;99520.09;5115049;28;20122;-59
2021/04/11 00:54:27;;;;;;;0.30;0.30;;;;;;;9.89;57.81;99526.22;5115250;28;20145;-58
2021/04/11 00:56:53;;;;;;;0.10;0.10;;;;;;;9.91;57.87;99524.09;5114808;28;20512;-58
2021/04/11 00:59:19;;;;;;;1.10;0.35;;;;;;;9.93;57.81;99522.00;5114833;28;20082;-59
2021/04/11 01:01:45;;;;;;;0.20;0.20;;;;;;;9.96;57.71;99527.03;5130809;27;20413;-59
2021/04/11 01:04:12;;;;;;;0.20;0.20;;;;;;;9.98;57.68;99517.56;5130349;27;20082;-59
2021/04/11 01:06:49;;;;;;;0.65;0.47;;;;;;;10.00;57.74;99520.91;5096267;28;20051;-59
2021/04/11 01:09:26;;;;;;;0.20;0.20;;;;;;;10.03;57.41;99521.56;5096298;28;20142;-59
2021/04/11 01:11:55;;;;;;;0.30;0.30;;;;;;;10.02;57.58;99520.69;5096428;28;20576;-59
2021/04/11 01:14:22;;;;;;;0.28;0.28;;;;;;;10.00;57.48;99514.59;5114525;28;20058;-59
2021/04/11 01:16:48;;;;;;;0.63;0.63;;;;;;;10.00;57.64;99522.81;5114327;28;20043;-58
2021/04/11 01:19:27;;;;;;;0.13;0.13;;;;;;;10.00;57.66;99522.81;5114376;28;20051;-59
2021/04/11 01:22:17;;;;;;;0.17;0.17;;;;;;;10.01;57.47;99519.00;5114517;28;20465;-58
2021/04/11 01:24:46;;;;;;;0.17;0.17;;;;;;;10.02;57.62;99520.69;4992214;28;20197;-58
2021/04/11 01:27:16;;;;;;;0.32;0.32;;;;;;;10.02;57.66;99509.72;4992324;28;20167;-58
2021/04/11 01:29:43;;;;;;;0.20;0.20;;;;;;;10.04;57.48;99520.47;4975190;28;20062;-58
2021/04/11 01:32:11;;;;;;;0.38;0.38;;;;;;;10.05;57.50;99516.69;4992292;28;20587;-59
2021/04/11 01:34:39;;;;;;;0.22;0.22;;;;;;;10.04;57.32;99512.25;4992106;28;20607;-59
2021/04/11 01:37:06;;;;;;;0.10;0.10;;;;;;;10.05;57.33;99514.78;4991853;28;20054;-58
2021/04/11 01:39:36;;;;;;;0.20;0.20;;;;;;;10.06;57.26;99508.25;4975879;28;20085;-59
2021/04/11 01:42:04;;;;;;;1.20;0.75;;;;;;;10.09;57.14;99504.22;4991861;28;20050;-58
2021/04/11 01:44:33;;;;;;;0.10;0.10;;;;;;;10.10;57.27;99509.50;4991801;28;20047;-59
2021/04/11 01:46:59;;;;;;;0.10;0.10;;;;;;;10.12;57.25;99507.38;4991757;28;20389;-59
2021/04/11 01:49:27;;;;;;;0.32;0.32;;;;;;;10.15;57.11;99506.13;4991636;28;20109;-59
2021/04/11 01:51:58;;;;;;;0.20;0.20;;;;;;;10.17;57.12;99507.59;4991670;28;20050;-59
2021/04/11 01:54:29;;;;;;;0.38;0.17;;;;;;;10.20;57.21;99508.22;4974242;28;20429;-59
2021/04/11 01:56:55;;;;;;;0.10;0.10;;;;;;;10.22;57.07;99514.31;4989966;28;20561;-59
2021/04/11 01:59:26;;;;;;;0.13;0.13;;;;;;;10.20;57.05;99511.78;4991543;28;20117;-59
2021/04/11 02:01:52;;;;;;;0.10;0.10;;;;;;;10.20;57.02;99521.94;5056359;28;20039;-59
2021/04/11 02:04:19;;;;;;;0.20;0.20;;;;;;;10.19;57.27;99526.59;5113378;28;20056;-60
2021/04/11 02:06:52;;;;;;;0.25;0.25;;;;;;;10.16;57.32;99516.03;5113454;28;20047;-59
2021/04/11 02:09:25;;;;;;;0.10;0.10;;;;;;;10.15;57.32;99525.31;5092291;28;20545;-59
2021/04/11 02:11:51;;;;;;;0.20;0.20;;;;;;;10.16;57.17;99521.53;5113594;28;20079;-59
2021/04/11 02:14:17;;;;;;;0.60;0.60;;;;;;;10.18;57.02;99522.97;5113336;28;20134;-59
2021/04/11 02:16:43;;;;;;;0.20;0.20;;;;;;;10.25;56.93;99530.38;5113222;28;20075;-60
2021/04/11 02:19:21;;;;;;;0.43;0.43;;;;;;;10.29;57.05;99528.88;5113101;28;20052;-59
2021/04/11 02:21:53;;;;;;;0.20;0.20;;;;;;;10.30;56.82;99519.56;5113120;28;20077;-59
2021/04/11 02:24:20;;;;;;;0.10;0.10;;;;;;;10.31;56.91;99518.53;5113320;28;20048;-60
2021/04/11 02:26:46;;;;;;;0.20;0.20;;;;;;;10.32;56.83;99522.94;5113230;28;20051;-59
2021/04/11 02:29:18;;;;;;;0.10;0.10;;;;;;;10.37;56.71;99525.09;5107368;28;20047;-60
2021/04/11 02:31:45;;;;;;;0.20;0.20;;;;;;;10.40;56.63;99521.91;5092776;28;20052;-59
2021/04/11 02:34:23;;;;;;;0.30;0.30;;;;;;;10.42;56.65;99526.09;5092546;28;20044;-60
2021/04/11 02:37:01;;;;;;;0.20;0.20;;;;;;;10.46;56.59;99510.06;5092607;28;20062;-59
2021/04/11 02:39:31;;;;;;;0.15;0.15;;;;;;;10.51;56.46;99518.47;5092450;28;20531;-61
2021/04/11 02:42:00;;;;;;;0.20;0.20;;;;;;;10.53;56.46;99519.13;5092252;28;20048;-58
2021/04/11 02:44:27;;;;;;;0.20;0.20;;;;;;;10.57;56.29;99517.63;5092331;28;20052;-59
2021/04/11 02:46:53;;;;;;;0.20;0.20;;;;;;;10.60;56.21;99510.84;5092577;28;20058;-60
2021/04/11 02:49:21;;;;;;;0.20;0.20;;;;;;;10.64;56.35;99512.91;5092140;28;20056;-58
2021/04/11 02:51:48;;;;;;;0.20;0.20;;;;;;;10.69;56.30;99506.81;5092214;28;20039;-59
2021/04/11 02:54:17;;;;;;;0.95;0.50;;;;;;;10.74;56.20;99506.97;5092359;28;20056;-59
2021/04/11 02:56:44;;;;;;;0.20;0.20;;;;;;;10.82;56.12;99514.13;5057458;28;20146;-61
2021/04/11 02:59:13;;;;;;;0.13;0.13;;;;;;;10.90;55.84;99510.28;5073776;28;20050;-63
2021/04/11 03:01:44;;;;;;;0.40;0.40;;;;;;;10.99;55.67;99508.97;5091601;28;20395;-60
2021/04/11 03:04:16;;;;;;;0.10;0.10;;;;;;;11.06;55.61;99515.25;5092047;28;20046;-60
2021/04/11 03:06:49;;;;;;;0.20;0.20;;;;;;;11.11;55.49;99506.34;5092195;28;20056;-60
2021/04/11 03:09:30;;;;;;;0.20;0.20;;;;;;;11.17;55.33;99509.06;5092667;28;20048;-63
2021/04/11 03:11:57;;;;;;;0.10;0.10;;;;;;;11.23;55.13;99499.06;5092784;28;20286;-60
2021/04/11 03:14:31;;;;;;;0.57;0.55;;;;;;;11.27;55.33;99504.97;5092215;28;20072;-61
2021/04/11 03:16:58;;;;;;;5.05;0.60;;;;;;;11.32;55.34;99489.50;5087536;28;20378;-59
2021/04/11 03:19:52;;;;;;;0.20;0.20;;;;;;;11.40;55.23;99505.72;5097080;28;20055;-59
2021/04/11 03:22:20;;;;;;;0.10;0.10;;;;;;;11.47;55.02;99515.81;5097660;28;20052;-59
2021/04/11 03:24:50;;;;;;;0.10;0.10;;;;;;;11.53;55.00;99513.03;5096223;28;20532;-61
2021/04/11 03:27:21;;;;;;;0.10;0.10;;;;;;;11.60;54.69;99520.38;5094849;28;20040;-59
2021/04/11 03:30:18;;;;;;;1.55;0.47;;;;;;;11.66;54.77;99519.47;5097583;28;20054;-59
2021/04/11 03:32:51;;;;;;;0.65;0.65;;;;;;;11.70;54.51;99517.94;5013918;28;20103;-60
2021/04/11 03:35:25;;;;;;;0.20;0.20;;;;;;;11.73;54.27;99520.25;5015535;28;20045;-61
2021/04/11 03:37:52;;;;;;;0.30;0.30;;;;;;;11.76;54.70;99519.81;5013995;28;20081;-60
2021/04/11 03:40:26;;;;;;;0.17;0.17;;;;;;;11.81;54.58;99519.97;5016705;28;20548;-60
2021/04/11 03:42:58;;;;;;;0.40;0.40;;;;;;;11.85;54.40;99526.72;5016158;28;20057;-60
2021/04/11 03:45:24;;;;;;;0.15;0.15;;;;;;;11.90;54.35;99526.88;5011529;28;20050;-59
2021/04/11 03:47:58;;;;;;;1.15;0.57;;;;;;;11.94;54.61;99530.06;5015847;28;20686;-59
2021/04/11 03:50:33;;;;;;;0.32;0.32;;;;;;;11.99;54.44;99532.13;5014991;28;20048;-60
2021/04/11 03:53:09;;;;;;;0.10;0.10;;;;;;;12.02;54.38;99532.50;5012149;28;20219;-60
2021/04/11 03:55:41;;;;;;;0.10;0.10;;;;;;;12.07;54.17;99531.81;5017840;28;20543;-59
2021/04/11 03:58:12;;;;;;;0.10;0.10;;;;;;;12.10;54.35;99528.59;5017140;28;20140;-59
2021/04/11 04:00:51;;;;;;;0.10;0.10;;;;;;;12.14;54.01;99527.09;5017506;28;20053;-60
2021/04/11 04:03:21;;;;;;;0.25;0.25;;;;;;;12.15;54.28;99523.28;5015324;28;20049;-60
2021/04/11 04:05:49;;;;;;;0.10;0.10;;;;;;;12.16;53.90;99530.47;5013775;28;20046;-59
2021/04/11 04:08:15;;;;;;;0.10;0.10;;;;;;;12.20;53.90;99526.19;5014494;28;20057;-59
2021/04/11 04:10:54;;;;;;;0.55;0.55;;;;;;;12.31;54.10;99523.72;5086903;28;20059;-58
2021/04/11 04:13:51;;;;;;;0.20;0.20;;;;;;;12.51;53.52;99515.25;5096361;28;20055;-59
2021/04/11 04:16:28;;;;;;;0.68;0.68;;;;;;;12.73;52.89;99516.44;5016011;28;20065;-59
2021/04/11 04:19:23;;;;;;;0.10;0.10;;;;;;;12.93;52.68;99518.13;5013830;28;20185;-53
2021/04/11 04:21:49;;;;;;;;;;;;;;;13.13;52.47;99523.34;5015720;28;20551;-60
2021/04/11 04:24:42;;;;;;;0.30;0.30;;;;;;;13.27;51.78;99518.47;5016618;28;20067;-60
2021/04/11 04:27:40;;;;;;;0.10;0.10;;;;;;;13.40;51.71;99509.19;5017137;28;20050;-61
2021/04/11 04:30:15;;;;;;;0.95;0.22;;;;;;;13.54;51.36;99513.41;5019194;28;20053;-61
2021/04/11 04:33:20;;;;;;;0.25;0.25;;;;;;;13.81;51.35;99501.94;5025497;28;20404;-60
2021/04/11 04:36:07;;;;;;;0.20;0.20;;;;;;;14.09;50.73;99503.13;5032562;28;20108;-59
2021/04/11 04:38:55;;;;;;;0.10;0.10;;;;;;;14.39;50.28;99504.91;5023275;28;20431;-59
2021/04/11 04:41:35;;;;;;;0.30;0.30;;;;;;;14.59;50.11;99497.03;5025126;28;20187;-60
2021/04/11 04:44:41;;;;;;;0.20;0.20;;;;;;;14.67;49.90;99482.84;5027640;28;20068;-60
2021/04/11 04:47:26;;;;;;;0.10;0.10;;;;;;;14.64;50.20;99477.81;4957157;28;21103;-59
2021/04/11 04:50:31;;;;;;;0.28;0.28;;;;;;;14.59;50.39;99463.03;4968230;28;20049;-58
2021/04/11 04:53:03;;;;;;;;;;;;;;;14.53;50.21;99464.84;4935709;28;20115;-60
2021/04/11 04:55:32;;;;;;;0.20;0.20;;;;;;;14.58;50.16;99461.38;4964662;28;19929;-60
2021/04/11 04:58:02;;;;;;;0.15;0.15;;;;;;;14.71;50.03;99472.16;4972268;28;20137;-59
2021/04/11 05:00:35;;;;;;;0.10;0.10;;;;;;;14.90;49.87;99472.81;4967096;28;20055;-60
2021/04/11 05:03:21;;;;;;;0.10;0.10;;;;;;;15.09;49.42;99480.88;4953445;28;20057;-60
2021/04/11 05:05:53;;;;;;;0.10;0.10;;;;;;;15.26;49.33;99473.47;4965135;28;20066;-62
2021/04/11 05:08:32;;;;;;;0.10;0.10;;;;;;;15.40;48.88;99463.75;4962437;28;20055;-62
2021/04/11 05:11:05;;;;;;;0.20;0.20;;;;;;;15.45;48.86;99463.00;4958660;28;20054;-61
2021/04/11 05:13:38;;;;;;;0.73;0.68;;;;;;;15.45;49.01;99467.69;4957404;28;20521;-61
2021/04/11 05:16:26;;;;;;;0.30;0.30;;;;;;;15.58;48.86;99467.38;4963855;28;20576;-61
2021/04/11 05:19:01;;;;;;;0.30;0.30;;;;;;;15.69;48.66;99465.59;4964666;28;20579;-64
2021/04/11 05:21:33;;;;;;;0.20;0.20;;;;;;;15.85;48.26;99461.16;4957627;28;20533;-63
2021/04/11 05:24:09;;;;;;;0.10;0.10;;;;;;;16.04;48.04;99461.72;4983207;28;20050;-62
2021/04/11 05:26:58;;;;;;;0.10;0.10;;;;;;;16.32;47.76;99466.25;5008333;28;20045;-61
2021/04/11 05:29:35;;;;;;;0.30;0.30;;;;;;;16.62;47.22;99464.97;5037269;28;20040;-60
2021/04/11 05:32:01;;;;;;;0.10;0.10;;;;;;;16.87;46.75;99463.59;5094914;28;20413;-61
2021/04/11 05:34:29;;;;;;;1.88;1.00;;;;;;;17.09;46.62;99460.81;5108861;27;20405;-62
2021/04/11 05:37:23;;;;;;;0.20;0.20;;;;;;;17.27;46.34;99452.13;5080755;28;20147;-63
2021/04/11 05:40:06;;;;;;;0.57;0.57;;;;;;;17.36;46.34;99465.50;5098079;27;20428;-62
2021/04/11 05:42:47;;;;;;;0.30;0.30;;;;;;;17.52;46.11;99465.38;5100447;27;20056;-61
2021/04/11 05:45:24;;;;;;;0.10;0.10;;;;;;;17.67;45.97;99461.06;5118253;27;20043;-61
2021/04/11 05:48:05;;;;;;;0.10;0.10;;;;;;;17.75;45.74;99454.16;5093711;28;20047;-62
2021/04/11 05:50:41;;;;;;;0.43;0.40;;;;;;;17.85;45.70;99441.16;5106154;28;20051;-62
2021/04/11 05:53:21;;;;;;;0.10;0.10;;;;;;;17.88;45.81;99450.09;5093276;28;20048;-62
2021/04/11 05:55:55;;;;;;;0.40;0.40;;;;;;;17.80;46.05;99451.41;5099835;27;20067;-64
2021/04/11 05:58:26;;;;;;;0.20;0.20;;;;;;;17.60;46.42;99463.22;5094991;28;20052;-61
2021/04/11 06:01:01;;;;;;;0.10;0.10;;;;;;;17.36;46.74;99458.03;5097896;28;20281;-60
2021/04/11 06:03:28;;;;;;;0.20;0.20;;;;;;;17.12;47.14;99451.94;5105624;28;20044;-59
2021/04/11 06:05:54;;;;;;;0.20;0.20;;;;;;;16.99;47.14;99473.47;5083761;28;20060;-59
2021/04/11 06:08:36;;;;;;;0.10;0.10;;;;;;;16.96;47.45;99457.34;5099478;28;20047;-59
2021/04/11 06:11:24;;;;;;;0.10;0.10;;;;;;;16.92;47.03;99460.91;5092791;28;20055;-60
2021/04/11 06:14:03;;;;;;;0.20;0.20;;;;;;;16.92;47.10;99464.53;5093307;28;20415;-60
2021/04/11 06:16:31;;;;;;;0.10;0.10;;;;;;;16.97;46.95;99459.03;5091529;28;20075;-62
2021/04/11 06:19:00;;;;;;;0.10;0.10;;;;;;;17.04;46.70;99450.50;5098950;28;20076;-61
2021/04/11 06:21:32;;;;;;;0.22;0.22;;;;;;;17.11;46.33;99448.34;5099145;28;20063;-61
2021/04/11 06:24:11;;;;;;;0.20;0.20;;;;;;;17.08;46.26;99448.06;5100234;27;20075;-62
2021/04/11 06:26:45;;;;;;;0.10;0.10;;;;;;;17.10;46.20;99440.28;5100909;28;20101;-60
2021/04/11 06:29:18;;;;;;;0.10;0.10;;;;;;;17.11;46.23;99442.81;5095141;28;20097;-61
2021/04/11 06:31:53;;;;;;;0.43;0.32;;;;;;;17.05;46.06;99438.31;5095680;28;20131;-64
2021/04/11 06:34:26;;;;;;;0.25;0.22;;;;;;;17.03;46.28;99425.78;5117391;27;20046;-63
2021/04/11 06:36:59;;;;;;;0.10;0.10;;;;;;;17.08;46.03;99437.78;5099192;28;20093;-60
2021/04/11 06:39:34;;;;;;;0.10;0.10;;;;;;;17.17;45.63;99425.09;5092551;28;20524;-60
2021/04/11 06:42:07;;;;;;;0.10;0.10;;;;;;;17.22;45.66;99424.28;5094567;28;20070;-62
2021/04/11 06:44:58;;;;;;;0.10;0.10;;;;;;;17.24;45.63;99424.03;5113205;28;20138;-61
2021/04/11 06:47:57;;;;;;;0.20;0.20;;;;;;;17.29;45.10;99418.53;5113485;28;20282;-61
2021/04/11 06:50:43;;;;;;;0.10;0.10;;;;;;;17.49;44.91;99434.50;5124218;27;20063;-60
2021/04/11 06:53:15;;;;;;;0.10;0.10;;;;;;;17.81;44.20;99430.88;5101580;27;20063;-62
2021/04/11 06:55:49;;;;;;;0.10;0.10;;;;;;;18.01;43.90;99427.41;5107437;28;20066;-60
2021/04/11 06:58:39;;;;;;;0.30;0.30;;;;;;;18.16;43.44;99438.59;5111886;28;20135;-59
2021/04/11 07:01:41;;;;;;;0.10;0.10;;;;;;;18.41;43.07;99436.25;5097578;28;20048;-62
2021/04/11 07:04:15;;;;;;;0.30;0.30;;;;;;;18.57;42.76;99435.19;5100651;27;20105;-64
2021/04/11 07:07:09;;;;;;;0.15;0.15;;;;;;;18.54;42.93;99436.56;5095933;28;20417;-63
2021/04/11 07:09:49;;;;;;;0.10;0.10;;;;;;;18.46;43.06;99434.31;5091135;28;20052;-62
2021/04/11 07:12:30;;;;;;;0.32;0.32;;;;;;;18.46;43.26;99431.53;5087025;28;20036;-62
2021/04/11 07:15:37;;;;;;;0.25;0.25;;;;;;;18.55;42.90;99442.94;5100645;28;20072;-63
2021/04/11 07:18:24;;;;;;;0.10;0.10;;;;;;;18.65;42.83;99442.16;5099964;28;20047;-61
2021/04/11 07:21:17;;;;;;;0.13;0.13;;;;;;;18.76;42.68;99448.59;5117030;28;20081;-63
2021/04/11 07:24:20;;;;;;;0.10;0.10;;;;;;;19.00;42.29;99443.41;5112258;28;20052;-63
2021/04/11 07:27:05;;;;;;;0.10;0.10;;;;;;;19.08;42.24;99462.38;5112144;28;20112;-60
2021/04/11 07:29:49;;;;;;;0.10;0.10;;;;;;;19.14;41.98;99464.03;5111440;28;20048;-62
2021/04/11 07:32:20;;;;;;;0.10;0.10;;;;;;;19.18;42.13;99450.38;5105778;28;20077;-60
2021/04/11 07:34:46;;;;;;;0.10;0.10;;;;;;;19.17;42.22;99452.34;5086805;28;20109;-58
2021/04/11 07:37:26;;;;;;;0.10;0.10;;;;;;;19.21;42.00;99453.47;5115499;28;20051;-60
2021/04/11 07:40:05;;;;;;;0.30;0.30;;;;;;;19.28;41.99;99444.00;5099750;28;20047;-60
2021/04/11 07:42:44;;;;;;;0.10;0.10;;;;;;;19.16;42.14;99470.16;5123940;28;20047;-62
2021/04/11 07:45:25;;;;;;;0.20;0.20;;;;;;;18.84;42.79;99462.78;5109742;28;20100;-60
2021/04/11 07:48:00;;;;;;;0.40;0.40;;;;;;;18.64;43.15;99469.16;5091360;28;20513;-61
2021/04/11 07:50:53;;;;;;;0.15;0.15;;;;;;;18.60;43.15;99475.53;5104122;28;20081;-61
2021/04/11 07:54:08;;;;;;;0.22;0.22;;;;;;;18.59;43.09;99471.06;5107412;28;20047;-57
2021/04/11 07:56:57;;;;;;;0.20;0.20;;;;;;;18.60;42.98;99462.44;5096425;28;20060;-59
2021/04/11 07:59:34;;;;;;;0.10;0.10;;;;;;;18.57;43.08;99463.00;5095720;28;20467;-59
2021/04/11 08:02:05;;;;;;;0.35;0.20;;;;;;;18.58;42.93;99461.03;5094240;28;21280;-61
2021/04/11 08:05:01;;;;;;;0.30;0.30;;;;;;;18.66;42.71;99455.78;5087506;27;20070;-61
2021/04/11 08:07:45;;;;;;;0.25;0.25;;;;;;;18.76;42.33;99452.22;5136816;27;20058;-60
2021/04/11 08:10:30;;;;;;;0.10;0.10;;;;;;;18.79;42.70;99461.97;5136333;27;20577;-61
2021/04/11 08:13:22;;;;;;;0.10;0.10;;;;;;;18.86;42.27;99463.41;5136155;27;20052;-59
2021/04/11 08:16:24;;;;;;;0.20;0.20;;;;;;;18.96;42.05;99445.06;5117688;27;20082;-60
2021/04/11 08:19:11;;;;;;;0.17;0.17;;;;;;;18.98;42.03;99463.16;5032588;28;20061;-61
2021/04/11 08:22:11;;;;;;;0.10;0.10;;;;;;;19.00;42.06;99454.53;5025618;28;20074;-61
2021/04/11 08:24:51;;;;;;;0.10;0.10;;;;;;;19.05;41.81;99455.38;5010446;28;20057;-60
2021/04/11 08:27:28;;;;;;;0.10;0.10;;;;;;;18.99;41.80;99448.16;5013083;28;20909;-58
2021/04/11 08:30:15;;;;;;;0.10;0.10;;;;;;;18.99;41.88;99452.84;5012618;28;20077;-60
2021/04/11 08:32:49;;;;;;;0.40;0.40;;;;;;;18.96;41.84;99450.63;5011784;28;20077;-61
2021/04/11 08:35:27;;;;;;;0.73;0.28;;;;;;;19.01;41.79;99440.34;5009706;28;20054;-60
2021/04/11 08:38:14;;;;;;;0.10;0.10;;;;;;;19.13;41.63;99437.31;5013024;28;20137;-61
2021/04/11 08:41:17;;;;;;;0.30;0.30;;;;;;;19.21;41.38;99442.34;5012532;28;20104;-60
2021/04/11 08:44:06;;;;;;;0.10;0.10;;;;;;;19.23;41.36;99448.44;4985926;28;20058;-61
2021/04/11 08:46:35;;;;;;;0.13;0.13;;;;;;;19.23;41.40;99451.22;5008971;28;20089;-60
2021/04/11 08:49:07;;;;;;;0.10;0.10;;;;;;;19.20;41.49;99437.03;5011769;28;20058;-62
2021/04/11 08:51:58;;;;;;;0.13;0.13;;;;;;;19.19;41.36;99429.81;5003354;28;20045;-59
2021/04/11 08:54:46;;;;;;;0.20;0.20;;;;;;;19.20;41.44;99437.03;4942433;28;20047;-60
2021/04/11 08:57:39;;;;;;;0.13;0.13;;;;;;;19.12;41.67;99454.28;5024725;28;20089;-61
2021/04/11 09:00:08;;;;;;;0.30;0.30;;;;;;;19.15;41.50;99448.97;5047211;28;20140;-61
2021/04/11 09:02:40;;;;;;;0.10;0.10;;;;;;;19.22;41.43;99444.00;5030074;28;20077;-62
2021/04/11 09:05:31;;;;;;;0.10;0.10;;;;;;;19.21;41.34;99439.56;5030541;28;20188;-61
2021/04/11 09:08:14;;;;;;;0.43;0.25;;;;;;;19.11;41.41;99447.88;5033624;28;20084;-60
2021/04/11 09:10:55;;;;;;;0.30;0.30;;;;;;;19.01;41.67;99439.53;5031612;28;20153;-55
2021/04/11 09:13:26;;;;;;;0.10;0.10;;;;;;;18.93;41.48;99435.31;5031935;28;20467;-61
2021/04/11 09:16:04;;;;;;;0.10;0.10;;;;;;;18.87;41.76;99444.75;5026691;28;20056;-62
2021/04/11 09:18:53;;;;;;;0.20;0.20;;;;;;;18.85;41.72;99444.19;5023410;28;20057;-60
2021/04/11 09:21:47;;;;;;;0.10;0.10;;;;;;;18.89;41.42;99432.25;5021925;28;20143;-62
2021/04/11 09:24:21;;;;;;;0.10;0.10;;;;;;;18.94;41.37;99416.69;5027944;28;20068;-61
2021/04/11 09:27:12;;;;;;;;;;;;;;;18.98;41.33;99415.03;5020849;28;20045;-61
2021/04/11 09:29:51;;;;;;;0.10;0.10;;;;;;;18.84;41.50;99425.81;5026005;28;19921;-62
2021/04/11 09:32:52;;;;;;;1.10;0.40;;;;;;;18.74;41.50;99412.69;5086684;28;20051;-60
2021/04/11 09:35:36;;;;;;;0.30;0.30;;;;;;;18.75;41.38;99408.81;5114717;27;20036;-60
2021/04/11 09:38:02;;;;;;;0.17;0.17;;;;;;;18.82;41.25;99414.13;5103844;27;20071;-60
2021/04/11 09:40:45;;;;;;;0.20;0.20;;;;;;;18.91;40.80;99416.09;5098140;28;20494;-62
2021/04/11 09:43:11;;;;;;;0.10;0.10;;;;;;;19.00;40.76;99426.72;5104472;28;20545;-62
2021/04/11 09:45:57;;;;;;;0.10;0.10;;;;;;;19.03;40.73;99438.13;5097409;27;20150;-62
2021/04/11 09:48:23;;;;;;;0.28;0.28;;;;;;;19.04;40.63;99447.31;5107629;28;20054;-62
2021/04/11 09:51:33;;;;;;;0.20;0.20;;;;;;;19.04;40.62;99438.97;5123626;27;20438;-63
2021/04/11 09:54:11;;;;;;;0.10;0.10;;;;;;;19.03;40.66;99437.28;5101933;28;20527;-59
2021/04/11 09:56:52;;;;;;;2.05;0.43;;;;;;;19.03;40.63;99420.59;5113960;28;20469;-58
2021/04/11 09:59:32;;;;;;;0.15;0.15;;;;;;;19.05;40.61;99429.47;5102022;28;20164;-62
2021/04/11 10:02:11;;;;;;;0.10;0.10;;;;;;;19.02;40.42;99436.47;5098444;27;20054;-63
2021/04/11 10:04:47;;;;;;;0.13;0.13;;;;;;;19.05;40.21;99423.91;5101610;27;20049;-61
2021/04/11 10:07:34;;;;;;;0.20;0.20;;;;;;;19.04;40.40;99405.56;5134156;27;20105;-53
2021/04/11 10:10:22;;;;;;;0.10;0.10;;;;;;;19.06;40.08;99389.41;5106821;27;20058;-56
2021/04/11 10:13:22;;;;;;;0.10;0.10;;;;;;;19.10;40.08;99381.38;5101275;28;20051;-62
2021/04/11 10:15:47;;;;;;;0.10;0.10;;;;;;;19.17;39.80;99377.19;5113374;28;20047;-61
2021/04/11 10:18:35;;;;;;;0.10;0.10;;;;;;;19.24;39.59;99376.91;5102220;28;20139;-59
2021/04/11 10:21:20;;;;;;;0.10;0.10;;;;;;;19.21;39.73;99386.66;5103734;27;20449;-60
2021/04/11 10:24:04;;;;;;;0.10;0.10;;;;;;;19.17;39.73;99405.03;5102942;28;20055;-59
2021/04/11 10:26:48;;;;;;;38.40;3.38;;;;;;;19.15;39.90;99411.97;5106206;28;20055;-59
2021/04/11 10:29:23;;;;;;;0.20;0.20;;;;;;;19.05;39.91;99402.50;5101468;28;20060;-60
2021/04/11 10:32:12;;;;;;;0.15;0.15;;;;;;;18.85;40.19;99392.13;5090204;28;20188;-60
2021/04/11 10:34:59;;;;;;;0.10;0.10;;;;;;;18.76;40.39;99399.38;5095475;27;20048;-60
2021/04/11 10:37:38;;;;;;;0.10;0.10;;;;;;;18.71;40.29;99389.06;5089331;28;20059;-59
2021/04/11 10:40:31;;;;;;;0.10;0.10;;;;;;;18.61;40.46;99391.81;5098760;28;20062;-59
2021/04/11 10:43:25;;;;;;;0.10;0.10;;;;;;;18.45;40.69;99365.09;5095499;28;20150;-58
2021/04/11 10:46:00;;;;;;;0.65;0.63;;;;;;;18.24;40.85;99380.84;5100063;28;20048;-60
2021/04/11 10:48:57;;;;;;;0.10;0.10;;;;;;;18.03;41.03;99364.91;5078024;28;20417;-57
2021/04/11 10:51:40;;;;;;;0.10;0.10;;;;;;;17.93;41.12;99373.22;5101610;28;20517;-56
2021/04/11 10:54:45;;;;;;;0.30;0.30;;;;;;;17.90;41.02;99372.91;5094215;28;20039;-58
2021/04/11 10:57:29;;;;;;;0.13;0.13;;;;;;;17.99;40.82;99354.59;5095621;28;20059;-58
2021/04/11 10:59:54;;;;;;;0.10;0.10;;;;;;;18.04;40.67;99374.09;5101638;28;20138;-57
2021/04/11 11:02:39;;;;;;;0.08;0.08;;;;;;;17.91;40.70;99357.91;5086398;28;20198;-56
2021/04/11 11:05:22;;;;;;;0.35;0.35;;;;;;;17.75;40.81;99373.63;5100524;28;20052;-58
2021/04/11 11:08:32;;;;;;;0.10;0.10;;;;;;;17.66;40.92;99379.66;5088916;28;20402;-59
2021/04/11 11:11:40;;;;;;;0.10;0.10;;;;;;;17.62;41.00;99369.38;5101313;28;20273;-57
2021/04/11 11:14:17;;;;;;;0.32;0.32;;;;;;;17.52;41.01;99376.53;5040737;28;20045;-61
2021/04/11 11:17:08;;;;;;;0.10;0.10;;;;;;;17.42;41.06;99359.81;5052252;28;20049;-61
2021/04/11 11:20:01;;;;;;;0.10;0.10;;;;;;;17.29;40.95;99347.22;5058057;28;20045;-61
2021/04/11 11:22:39;;;;;;;0.25;0.25;;;;;;;17.16;41.40;99354.03;5038411;28;20082;-59
2021/04/11 11:25:23;;;;;;;0.10;0.10;;;;;;;17.02;41.17;99347.28;5055627;28;20041;-59
2021/04/11 11:28:25;;;;;;;0.10;0.10;;;;;;;16.89;41.65;99347.72;5054579;28;20064;-60
2021/04/11 11:31:09;;;;;;;0.10;0.10;;;;;;;16.74;41.46;99328.94;5053067;28;20072;-58
2021/04/11 11:33:53;;;;;;;0.20;0.20;;;;;;;16.64;41.41;99318.63;5044049;28;20079;-61
2021/04/11 11:37:00;;;;;;;0.20;0.20;;;;;;;16.60;41.74;99334.09;5048707;28;20049;-64
2021/04/11 11:39:45;;;;;;;0.10;0.10;;;;;;;16.54;41.69;99326.84;5025533;28;20172;-61
2021/04/11 11:42:39;;;;;;;0.20;0.20;;;;;;;16.54;41.26;99302.72;5049157;28;20472;-61
2021/04/11 11:45:09;;;;;;;0.10;0.10;;;;;;;16.58;41.27;99289.19;5043440;28;20041;-62
2021/04/11 11:47:56;;;;;;;1.38;0.30;;;;;;;16.59;41.16;99282.50;5041692;28;20045;-62
2021/04/11 11:50:37;;;;;;;0.10;0.10;;;;;;;16.59;41.22;99291.69;5030142;28;20125;-63
2021/04/11 11:53:20;;;;;;;0.10;0.10;;;;;;;16.63;40.97;99300.28;5096091;28;20071;-63
2021/04/11 11:56:07;;;;;;;0.20;0.20;;;;;;;16.67;40.68;99308.94;5097908;28;20064;-63
2021/04/11 11:59:05;;;;;;;0.55;0.55;;;;;;;16.77;40.49;99320.97;5077093;28;20298;-63
2021/04/11 12:01:34;;;;;;;0.10;0.10;;;;;;;16.91;40.34;99331.66;5001102;28;20077;-63
2021/04/11 12:04:37;;;;;;;0.45;0.45;;;;;;;17.05;39.95;99338.44;5001783;28;20479;-62
2021/04/11 12:07:18;;;;;;;0.30;0.30;;;;;;;17.07;39.96;99330.66;4995580;28;20069;-61
2021/04/11 12:09:45;;;;;;;0.20;0.20;;;;;;;17.14;39.91;99336.84;4982211;28;20069;-61
2021/04/11 12:12:20;;;;;;;0.10;0.10;;;;;;;17.20;39.69;99345.22;4997280;28;20404;-64
2021/04/11 12:15:17;;;;;;;2.30;0.30;;;;;;;17.20;39.89;99334.09;4998228;28;20542;-65
2021/04/11 12:17:54;;;;;;;0.13;0.13;;;;;;;17.12;39.86;99338.19;4992196;28;20524;-64
2021/04/11 12:20:46;;;;;;;0.10;0.10;;;;;;;17.00;40.04;99357.78;4995172;28;20057;-62
2021/04/11 12:23:17;;;;;;;0.10;0.10;;;;;;;16.86;40.21;99339.88;5003946;28;20050;-64
2021/04/11 12:25:44;;;;;;;1.10;0.50;;;;;;;16.78;40.18;99355.91;5001850;28;20046;-61